XS63 weather

CLOSED Texas Air Museum Airport
Rio Hondo, Texas, United States

Public forecast

Using degrees Fahrenheit for public forecast. Weather courtesy of forecast.io.

Closest aviation weather report (METAR) to Texas Air Museum Airport

Closest report is Valley International Airport, 5.0 nm (9.3 km) W. Retrieved 2019/10/17 17:03 UTC (22 minutes ago):

KHRL 171703Z 34012KT 10SM SCT015 SCT047 OVC055 23/14 A2995 RMK AO2 T02330139

Closest aviation forecast (TAF) to Texas Air Museum Airport

Closest forecast is Valley International Airport, 5.0 nm (9.3 km) W. Retrieved 2019/10/17 12:22 UTC (5 hours ago):

TAF KHRL 171120Z 1712/1812 34011KT P6SM OVC020 FM171600 35011KT P6SM VCSH OVC040 FM180000 36009KT P6SM OVC035